Geneva, Texas
Current Conditions -  °F | °C
As of 8:56 AM on Friday 28 Nov 2014 (Local Time) from KAQV Reporting Station
Clear Clear  
Wind Chill: 40°   Ceiling: Unl
Heat Index: 44°   Visibility: 10mi
Dew Point: 35°   Wind: 8mph
Humidity: 71%   Direction: 170°S
Pressure: 30.37"   Gusts: NA
Location:  31.48°N, 93.92°W
Report Text: KAQV 281456Z AUTO 17007KT 10SM CLR 07/02 A3037 RMK AO2 SLP287 T00670017 55000
Loading
Personal Weather Stations






























Interactive Weather Map New forecast layout! Learn more

10-Day Weather Forecast

Advertisements
Track Severe Weather on mobile